Latest Weather Observations for Cobar

IDN60801

Issued at 5:32 pm EDT Thursday 30 March 2017 (issued every 30 minutes, with the page automatically refreshed every 10 minutes)

About weather observations | Map of weather stations | Latest weather observations for NSW | Other Formats
Station Details ID: 048027 Name: COBAR MO Lat: -31.48 Lon: 145.83 Height: 260.0 m
Data from the previous 72 hours. | See also: Recent months at Cobar
Date/Time
EDT
Temp
°C
App
Temp
°C
Dew
Point
°C
Rel
Hum
%
Delta-T
°C
Wind Press
QNH
hPa
Press
MSL
hPa
Rain since
9am
mm
Dir  Spd
km/h
Gust
km/h
Spd
kts
Gust
kts
30/05:30pm 20.8 12.6 -3.6 19 10.2 SSW 30 44 16 24 1014.4 1013.1 0.0
30/05:00pm 20.6 13.0 -1.8 22 9.7 SSW 28 48 15 26 1014.3 1013.0 0.0
30/04:57pm 20.8 13.3 -1.7 22 9.8 SSW 28 48 15 26 1014.2 1012.9 0.0
30/04:30pm 20.8 12.9 -1.7 22 9.8 SSW 30 48 16 26 1014.2 1012.9 0.0
30/04:00pm 20.7 14.2 0.0 25 9.3 S 24 39 13 21 1014.1 1012.8 0.0
30/03:30pm 20.3 13.1 0.7 27 8.9 SSW 28 43 15 23 1014.2 1012.9 0.0
30/03:10pm 20.2 13.1 1.1 28 8.8 SSW 28 46 15 25 1014.2 1012.9 0.0
30/03:00pm 20.2 12.4 1.6 29 8.6 SSW 32 43 17 23 1014.3 1013.0 0.0
30/02:30pm 21.0 14.4 1.8 28 9.0 SW 26 43 14 23 1014.5 1013.2 0.0
30/02:05pm 21.1 14.1 1.9 28 9.0 SW 28 48 15 26 1014.7 1013.5 0.0
30/02:00pm 20.1 13.0 1.5 29 8.6 SSW 28 39 15 21 1014.8 1013.6 0.0
30/01:30pm 19.7 12.7 1.7 30 8.3 SW 28 43 15 23 1015.0 1013.8 0.0
30/01:00pm 20.3 13.2 1.2 28 8.8 SW 28 43 15 23 1015.2 1014.0 0.0
30/12:45pm 19.6 11.8 2.0 31 8.2 SSW 32 50 17 27 1015.2 1014.0 0.0
30/12:30pm 19.2 11.8 1.7 31 8.1 SW 30 44 16 24 1015.3 1014.1 0.0
30/12:00pm 18.9 11.2 2.3 33 7.7 SSW 32 56 17 30 1015.5 1014.3 0.0
30/11:55am 19.0 11.1 2.4 33 7.7 SW 33 52 18 28 1015.4 1014.2 0.0
30/11:30am 17.9 11.0 2.6 36 7.1 SSW 28 44 15 24 1015.7 1014.5 0.0
30/11:00am 17.5 9.9 3.0 38 6.8 SSW 32 43 17 23 1015.5 1014.3 0.0
30/10:30am 16.9 10.3 4.3 43 6.0 SSW 28 46 15 25 1015.5 1014.3 0.0
30/10:00am 17.1 11.6 6.0 48 5.5 SSW 24 35 13 19 1015.1 1013.9 0.0
30/09:30am 15.7 9.5 6.2 53 4.7 SSW 28 39 15 21 1015.1 1013.9 0.0
30/09:00am 15.1 9.8 6.7 57 4.1 SSW 24 35 13 19 1014.6 1013.3 0.0
30/08:30am 15.1 10.8 7.9 62 3.6 SSW 20 32 11 17 1014.1 1012.8 0.0
30/08:00am 14.7 10.1 8.0 64 3.4 SSW 22 33 12 18 1013.7 1012.4 0.0
30/07:30am 15.0 10.0 8.0 63 3.6 SSW 24 35 13 19 1013.4 1012.1 0.0
30/07:00am 15.4 10.4 8.2 62 3.7 SSW 24 33 13 18 1013.0 1011.7 0.0
30/06:30am 15.8 10.9 8.3 61 3.8 SW 24 33 13 18 1012.4 1011.1 0.0
30/06:00am 16.5 12.0 8.7 60 4.1 SSW 22 35 12 19 1012.2 1011.0 0.0
30/05:30am 17.1 11.9 8.8 58 4.3 SW 26 39 14 21 1011.8 1010.6 0.0
30/05:00am 19.0 12.6 8.6 51 5.5 SSW 32 46 17 25 1010.9 1009.6 0.0
30/04:46am 19.5 13.6 7.6 46 6.2 SW 28 46 15 25 1010.8 1009.5 0.0
30/04:30am 20.3 14.8 5.9 39 7.3 SW 24 39 13 21 1010.7 1009.4 0.0
30/04:00am 21.7 16.0 4.7 33 8.5 SSW 24 41 13 22 1010.6 1009.3 0.0
30/03:34am 22.7 16.2 4.7 31 9.0 SSW 28 46 15 25 1010.5 1009.2 0.0
30/03:30am 22.8 16.6 4.3 30 9.2 SSW 26 46 14 25 1010.4 1009.1 0.0
30/03:00am 23.7 17.5 2.0 24 10.4 SSW 24 43 13 23 1010.0 1008.7 0.0
30/02:30am 24.0 18.3 -1.0 19 11.3 SW 19 30 10 16 1009.9 1008.6 0.0
30/02:00am 23.3 19.8 1.0 23 10.5 SW 9 11 5 6 1010.0 1008.7 0.0
30/01:30am 25.5 21.5 0.2 19 11.9 SSW 11 15 6 8 1010.0 1008.7 0.0
30/01:00am 25.0 22.6 5.2 28 10.2 SSW 7 9 4 5 1010.1 1008.8 0.0
30/12:30am 25.3 23.0 5.5 28 10.2 SSE 7 7 4 4 1010.1 1008.8 0.0
30/12:00am 25.7 23.4 5.8 28 10.4 SSW 7 9 4 5 1010.0 1008.7 0.0
 
Date/Time
EDT
Temp
°C
App
Temp
°C
Dew
Point
°C
Rel
Hum
%
Delta-T
°C
Wind Press
QNH
hPa
Press
MSL
hPa
Rain since
9am
mm
Dir  Spd
km/h
Gust
km/h
Spd
kts
Gust
kts
29/11:30pm 26.0 23.4 6.1 28 10.4 SW 9 11 5 6 1010.0 1008.7 0.0
29/11:00pm 26.9 24.1 8.4 31 10.2 WSW 13 19 7 10 1009.8 1008.5 0.0
29/10:30pm 28.2 26.5 9.9 32 10.4 W 9 15 5 8 1009.7 1008.4 0.0
29/10:00pm 29.6 28.1 10.7 31 10.9 W 9 11 5 6 1009.2 1007.9 0.0
29/09:30pm 30.5 28.6 11.9 31 11.0 W 13 17 7 9 1008.9 1007.6 0.0
29/09:00pm 31.1 29.4 12.5 32 11.1 W 13 17 7 9 1008.4 1007.1 0.0
29/08:30pm 31.4 30.0 12.2 30 11.4 W 11 13 6 7 1007.8 1006.5 0.0
29/08:00pm 32.5 30.7 12.2 29 12.2 W 13 19 7 10 1007.5 1006.2 0.0
29/07:30pm 33.4 30.8 11.9 27 12.8 W 17 24 9 13 1007.1 1005.8 0.0
29/07:00pm 34.6 31.1 12.3 26 13.5 W 22 33 12 18 1006.9 1005.6 0.0
29/06:30pm 36.1 33.2 12.3 24 14.5 WNW 19 30 10 16 1006.6 1005.3 0.0
29/06:00pm 36.3 34.2 12.5 24 14.5 WNW 15 26 8 14 1006.5 1005.2 0.0
29/05:30pm 36.2 34.9 12.4 24 14.5 NNW 11 20 6 11 1006.5 1005.2 0.0
29/05:00pm 35.7 33.1 12.0 24 14.3 WNW 17 26 9 14 1006.7 1005.4 0.0
29/04:30pm 38.0 35.8 13.3 23 15.3 NW 17 24 9 13 1007.0 1005.7 0.0
29/04:00pm 37.2 33.1 12.6 23 15.1 NNW 26 39 14 21 1007.4 1006.1 0.0
29/03:30pm 36.1 33.4 13.0 25 14.2 NNW 19 32 10 17 1007.6 1006.3 0.0
29/03:00pm 36.2 33.3 12.4 24 14.5 NNW 19 30 10 16 1008.1 1006.9 0.0
29/02:30pm 37.4 34.5 12.8 23 15.1 NNW 20 32 11 17 1008.6 1007.3 0.0
29/02:00pm 36.1 32.6 12.3 24 14.5 NW 22 37 12 20 1009.2 1007.9 0.0
29/01:30pm 36.2 33.2 12.4 24 14.5 NNW 20 32 11 17 1009.8 1008.5 0.0
29/01:00pm 35.2 32.3 12.8 26 13.7 N 20 33 11 18 1010.3 1009.0 0.0
29/12:30pm 35.4 32.7 13.5 26 13.5 NNW 20 28 11 15 1010.8 1009.5 0.0
29/12:00pm 33.3 30.0 12.9 29 12.4 N 22 32 12 17 1011.2 1009.9 0.0
29/11:30am 32.8 29.5 12.9 29 12.0 N 22 32 12 17 1011.4 1010.2 0.0
29/11:00am 31.1 28.7 12.5 32 11.1 N 17 26 9 14 1011.6 1010.4 0.0
29/10:30am 29.2 26.9 11.7 34 10.2 NNE 15 20 8 11 1011.8 1010.6 0.0
29/10:00am 27.6 24.9 10.3 34 9.8 NE 15 20 8 11 1011.8 1010.6 0.0
29/09:30am 25.9 23.7 9.3 35 9.2 ENE 11 15 6 8 1011.8 1010.6 0.0
29/09:00am 24.0 21.0 7.6 35 8.7 E 13 17 7 9 1011.7 1010.5 0.0
29/08:30am 21.6 20.3 9.8 47 6.4 E 7 11 4 6 1011.5 1010.3 0.0
29/08:00am 19.5 18.5 10.2 55 5.1 E 6 7 3 4 1011.4 1010.2 0.0
29/07:30am 18.4 16.7 10.0 58 4.5 ESE 9 11 5 6 1011.0 1009.7 0.0
29/07:00am 18.3 17.1 10.2 59 4.4 SE 7 11 4 6 1010.8 1009.5 0.0
29/06:30am 18.5 17.6 10.8 61 4.2 SSE 6 7 3 4 1010.8 1009.5 0.0
29/06:00am 18.9 18.0 10.5 58 4.6 SSE 6 7 3 4 1010.9 1009.6 0.0
29/05:30am 19.3 18.0 10.0 55 5.0 SSE 7 7 4 4 1010.8 1009.5 0.0
29/05:00am 19.4 18.3 10.1 55 5.1 SSE 6 7 3 4 1010.9 1009.6 0.0
29/04:30am 19.4 18.1 9.9 54 5.1 E 7 9 4 5 1010.9 1009.6 0.0
29/04:00am 19.2 17.9 9.9 55 5.0 ESE 7 9 4 5 1011.1 1009.8 0.0
29/03:30am 20.6 19.3 10.1 51 5.7 SE 7 9 4 5 1011.2 1009.9 0.0
29/03:00am 20.7 19.5 10.2 51 5.8 ESE 7 9 4 5 1011.5 1010.3 0.0
29/02:30am 20.9 19.6 10.1 50 5.9 ESE 7 9 4 5 1011.7 1010.5 0.0
29/02:00am 21.0 19.7 9.9 49 6.1 E 7 7 4 4 1012.0 1010.8 0.0
29/01:30am 21.7 20.4 9.9 47 6.5 ESE 7 9 4 5 1012.2 1011.0 0.0
29/01:00am 22.4 20.3 9.9 45 6.9 E 11 13 6 7 1012.4 1011.1 0.0
29/12:30am 22.8 20.5 10.3 45 6.9 ESE 13 17 7 9 1012.4 1011.1 0.0
29/12:00am 23.1 20.8 10.5 45 7.0 ESE 13 17 7 9 1012.8 1011.5 0.0
 
Date/Time
EDT
Temp
°C
App
Temp
°C
Dew
Point
°C
Rel
Hum
%
Delta-T
°C
Wind Press
QNH
hPa
Press
MSL
hPa
Rain since
9am
mm
Dir  Spd
km/h
Gust
km/h
Spd
kts
Gust
kts
28/11:30pm 23.6 21.7 10.6 44 7.3 ESE 11 19 6 10 1013.2 1011.9 0.0
28/11:00pm 24.0 22.3 9.9 41 7.8 ESE 9 13 5 7 1013.4 1012.1 0.0
28/10:30pm 24.6 22.9 9.7 39 8.3 SE 9 13 5 7 1013.2 1011.9 0.0
28/10:00pm 25.6 23.4 9.4 36 9.0 SE 11 15 6 8 1013.2 1011.9 0.0
28/09:30pm 26.7 24.5 9.5 34 9.6 SSE 11 17 6 9 1013.0 1011.7 0.0
28/09:00pm 27.2 25.2 8.6 31 10.3 SSE 9 13 5 7 1012.7 1011.4 0.0
28/08:30pm 27.8 25.4 8.6 30 10.6 S 11 17 6 9 1012.4 1011.1 0.0
28/08:00pm 28.1 26.3 9.4 31 10.5 S 9 13 5 7 1012.1 1010.9 0.0
28/07:30pm 29.2 27.4 9.3 29 11.2 SSE 9 13 5 7 1011.9 1010.7 0.0
28/07:00pm 30.2 28.1 9.7 28 11.7 SSE 11 15 6 8 1011.8 1010.6 0.0
28/06:30pm 31.0 28.9 9.8 27 12.1 S 11 15 6 8 1011.6 1010.4 0.0
28/06:00pm 31.8 30.0 9.3 25 12.8 S 9 13 5 7 1011.4 1010.2 0.0
28/05:30pm 31.7 30.0 9.8 26 12.6 S 9 17 5 9 1011.3 1010.1 0.0
28/05:00pm 31.7 29.1 9.3 25 12.8 SSW 13 19 7 10 1011.3 1010.1 0.0
28/04:30pm 32.0 29.6 10.1 26 12.7 SW 13 22 7 12 1011.4 1010.2 0.0
28/04:00pm 31.4 29.6 9.6 26 12.5 S 9 19 5 10 1011.5 1010.3 0.0
28/03:30pm 31.3 28.7 9.5 26 12.4 S 13 19 7 10 1011.6 1010.4 0.0
28/03:00pm 30.6 27.8 10.0 28 11.8 SSW 15 20 8 11 1012.0 1010.8 0.0
28/02:30pm 30.5 28.4 11.0 30 11.4 SSE 13 20 7 11 1012.4 1011.1 0.0
28/02:00pm 29.7 27.7 10.3 30 11.1 SSW 11 20 6 11 1012.6 1011.3 0.0
28/01:30pm 28.8 27.0 10.9 33 10.3 S 11 20 6 11 1013.0 1011.7 0.0
28/01:00pm 27.8 25.8 10.1 33 10.0 S 11 20 6 11 1013.5 1012.2 0.0
28/12:30pm 26.5 24.4 9.8 35 9.4 SSE 11 19 6 10 1014.0 1012.7 0.0
28/12:00pm 26.0 23.4 9.4 35 9.2 SSE 13 20 7 11 1014.5 1013.2 0.0
28/11:30am 24.8 22.1 9.1 37 8.6 SSE 13 22 7 12 1014.7 1013.5 0.0
28/11:00am 24.2 20.9 9.4 39 8.1 S 17 26 9 14 1014.8 1013.6 0.0
28/10:30am 23.3 20.1 8.6 39 7.9 S 15 20 8 11 1014.9 1013.7 0.0
28/10:00am 22.8 19.7 8.9 41 7.5 S 15 20 8 11 1015.0 1013.8 0.0
28/09:30am 21.4 18.2 8.3 43 7.0 SSE 15 20 8 11 1014.7 1013.5 0.0
28/09:00am 20.8 17.9 8.1 44 6.7 SSE 13 17 7 9 1014.2 1012.9 0.0
28/08:30am 19.8 16.8 7.5 45 6.4 SSE 13 19 7 10 1013.7 1012.4 0.0
28/08:00am 19.3 16.6 7.4 46 6.1 S 11 17 6 9 1013.4 1012.1 0.0
28/07:30am 19.4 16.3 7.2 45 6.3 S 13 19 7 10 1013.3 1012.0 0.0
28/07:00am 19.7 17.1 7.8 46 6.2 S 11 15 6 8 1012.9 1011.6 0.0
28/06:30am 20.1 17.5 7.8 45 6.4 S 11 15 6 8 1012.8 1011.5 0.0
28/06:00am 20.5 17.3 8.5 46 6.4 S 15 22 8 12 1012.6 1011.3 0.0
28/05:30am 20.9 18.0 8.2 44 6.7 S 13 20 7 11 1012.2 1011.0 0.0
28/05:00am 21.6 18.2 7.8 41 7.3 S 15 20 8 11 1012.2 1011.0 0.0
28/04:30am 21.8 18.4 7.6 40 7.5 SSW 15 22 8 12 1012.2 1011.0 0.0
28/04:00am 22.6 19.5 7.2 37 8.1 S 13 24 7 13 1012.4 1011.1 0.0
28/03:30am 23.0 18.7 7.1 36 8.3 SSW 19 28 10 15 1012.6 1011.3 0.0
28/03:00am 24.2 21.2 9.4 39 8.1 S 15 26 8 14 1012.8 1011.5 0.0
28/02:30am 25.2 22.6 10.6 40 8.2 SSW 15 20 8 11 1012.9 1011.6 0.0
28/02:00am 26.2 23.0 11.2 39 8.6 S 19 28 10 15 1012.9 1011.6 0.0
28/01:30am 26.9 23.8 12.2 40 8.6 S 20 30 11 16 1012.8 1011.5 0.0
28/01:00am 27.4 25.0 12.6 40 8.7 S 17 26 9 14 1012.9 1011.6 0.0
28/12:33am 28.0 25.6 12.8 39 9.0 S 17 28 9 15 1012.8 1011.5 0.0
28/12:30am 28.0 25.3 12.8 39 9.0 S 19 28 10 15 1012.7 1011.4 0.0
28/12:25am 28.1 25.1 12.5 38 9.2 S 20 32 11 17 1012.7 1011.4 0.0
28/12:00am 28.8 26.4 12.7 37 9.6 S 17 28 9 15 1012.5 1011.2 0.0
 
Date/Time
EDT
Temp
°C
App
Temp
°C
Dew
Point
°C
Rel
Hum
%
Delta-T
°C
Wind Press
QNH
hPa
Press
MSL
hPa
Rain since
9am
mm
Dir  Spd
km/h
Gust
km/h
Spd
kts
Gust
kts
27/11:50pm 29.2 26.7 13.4 38 9.5 SSE 19 28 10 15 1012.5 1011.2 0.0
27/11:31pm 29.8 27.3 13.5 36 9.8 S 19 28 10 15 1012.2 1011.0 0.0
27/11:30pm 29.9 27.4 13.6 36 9.9 S 19 28 10 15 1012.2 1011.0 0.0
27/11:00pm 31.3 29.2 13.6 34 10.8 SSW 17 24 9 13 1011.8 1010.6 0.0
27/10:30pm 32.1 30.5 12.8 30 11.6 S 13 19 7 10 1011.7 1010.5 0.0
27/10:00pm 33.1 30.5 12.1 27 12.6 SE 17 26 9 14 1011.2 1009.9 0.0
27/09:30pm 33.3 32.2 11.8 27 12.8 SSE 9 11 5 6 1010.4 1009.1 0.0
27/09:00pm 34.0 31.9 11.2 25 13.5 S 13 22 7 12 1010.3 1009.0 0.0
27/08:30pm 33.4 32.3 10.7 25 13.3 NNW 7 9 4 5 1009.3 1008.0 0.0
27/08:00pm 33.3 31.8 10.6 25 13.3 N 9 11 5 6 1008.8 1007.5 0.0
27/07:30pm 34.2 32.4 9.4 22 14.3 NNW 9 11 5 6 1008.7 1007.4 0.0
27/07:00pm 37.0 35.2 9.6 19 16.1 NW 9 11 5 6 1008.5 1007.2 0.0
27/06:30pm 38.0 36.1 10.4 19 16.4 NNW 11 15 6 8 1008.5 1007.2 0.0
27/06:00pm 38.8 37.0 11.0 19 16.8 WNW 11 19 6 10 1008.6 1007.3 0.0

Other Formats:

Comma delimited format used in spreadsheet applications
http://www.bom.gov.au/fwo/IDN60801/IDN60801.94711.axf

JavaScript Object Notation format (JSON) in row-major order
http://www.bom.gov.au/fwo/IDN60801/IDN60801.94711.json